sensor_id;sensor_type;location;lat;lon;timestamp;temperature;humidity
55211;DHT22;41082;52.822;6.666;2023-10-31T00:00:44;12.40;99.90
55211;DHT22;41082;52.822;6.666;2023-10-31T00:03:10;12.40;99.90
55211;DHT22;41082;52.822;6.666;2023-10-31T00:05:36;12.40;99.90
55211;DHT22;41082;52.822;6.666;2023-10-31T00:08:01;12.40;99.90
55211;DHT22;41082;52.822;6.666;2023-10-31T00:10:27;12.40;99.90
55211;DHT22;41082;52.822;6.666;2023-10-31T00:12:53;12.50;99.90
55211;DHT22;41082;52.822;6.666;2023-10-31T00:15:18;12.40;99.90
55211;DHT22;41082;52.822;6.666;2023-10-31T00:17:44;12.50;99.90
55211;DHT22;41082;52.822;6.666;2023-10-31T00:20:09;12.50;99.90
55211;DHT22;41082;52.822;6.666;2023-10-31T00:22:35;12.50;99.90
55211;DHT22;41082;52.822;6.666;2023-10-31T00:25:01;12.40;99.90
55211;DHT22;41082;52.822;6.666;2023-10-31T00:27:27;12.40;99.90
55211;DHT22;41082;52.822;6.666;2023-10-31T00:29:52;12.50;99.90
55211;DHT22;41082;52.822;6.666;2023-10-31T00:32:18;12.50;99.90
55211;DHT22;41082;52.822;6.666;2023-10-31T00:34:43;12.50;99.90
55211;DHT22;41082;52.822;6.666;2023-10-31T00:37:09;12.50;99.90
55211;DHT22;41082;52.822;6.666;2023-10-31T00:39:34;12.50;99.90
55211;DHT22;41082;52.822;6.666;2023-10-31T00:42:00;12.50;99.90
55211;DHT22;41082;52.822;6.666;2023-10-31T00:44:26;12.50;99.90
55211;DHT22;41082;52.822;6.666;2023-10-31T00:46:51;12.60;99.90
55211;DHT22;41082;52.822;6.666;2023-10-31T00:49:17;12.50;99.90
55211;DHT22;41082;52.822;6.666;2023-10-31T00:51:42;12.50;99.90
55211;DHT22;41082;52.822;6.666;2023-10-31T00:54:08;12.50;99.90
55211;DHT22;41082;52.822;6.666;2023-10-31T00:56:34;12.50;99.90
55211;DHT22;41082;52.822;6.666;2023-10-31T00:59:00;12.50;99.90
55211;DHT22;41082;52.822;6.666;2023-10-31T01:01:26;12.60;99.90
55211;DHT22;41082;52.822;6.666;2023-10-31T01:03:51;12.60;99.90
55211;DHT22;41082;52.822;6.666;2023-10-31T01:06:17;12.50;99.90
55211;DHT22;41082;52.822;6.666;2023-10-31T01:08:43;12.50;99.90
55211;DHT22;41082;52.822;6.666;2023-10-31T01:11:08;12.40;99.90
55211;DHT22;41082;52.822;6.666;2023-10-31T01:13:34;12.40;99.90
55211;DHT22;41082;52.822;6.666;2023-10-31T01:15:59;12.40;99.90
55211;DHT22;41082;52.822;6.666;2023-10-31T01:18:25;12.40;99.90
55211;DHT22;41082;52.822;6.666;2023-10-31T01:20:51;12.30;99.90
55211;DHT22;41082;52.822;6.666;2023-10-31T01:23:17;12.30;99.90
55211;DHT22;41082;52.822;6.666;2023-10-31T01:25:42;12.30;99.90
55211;DHT22;41082;52.822;6.666;2023-10-31T01:28:08;12.30;99.90
55211;DHT22;41082;52.822;6.666;2023-10-31T01:30:34;12.20;99.90
55211;DHT22;41082;52.822;6.666;2023-10-31T01:32:59;12.20;99.90
55211;DHT22;41082;52.822;6.666;2023-10-31T01:35:25;12.10;99.90
55211;DHT22;41082;52.822;6.666;2023-10-31T01:37:51;12.00;99.90
55211;DHT22;41082;52.822;6.666;2023-10-31T01:40:16;12.00;99.90
55211;DHT22;41082;52.822;6.666;2023-10-31T01:42:42;12.00;99.90
55211;DHT22;41082;52.822;6.666;2023-10-31T01:45:08;11.90;99.90
55211;DHT22;41082;52.822;6.666;2023-10-31T01:47:34;11.80;99.90
55211;DHT22;41082;52.822;6.666;2023-10-31T01:50:00;11.70;99.90
55211;DHT22;41082;52.822;6.666;2023-10-31T01:52:26;11.60;99.90
55211;DHT22;41082;52.822;6.666;2023-10-31T01:54:52;11.50;99.90
55211;DHT22;41082;52.822;6.666;2023-10-31T01:57:21;11.50;99.90
55211;DHT22;41082;52.822;6.666;2023-10-31T01:59:48;11.50;99.90
55211;DHT22;41082;52.822;6.666;2023-10-31T02:02:14;11.40;99.90
55211;DHT22;41082;52.822;6.666;2023-10-31T02:04:40;11.40;99.90
55211;DHT22;41082;52.822;6.666;2023-10-31T02:07:06;11.30;99.90
55211;DHT22;41082;52.822;6.666;2023-10-31T02:09:32;11.20;99.90
55211;DHT22;41082;52.822;6.666;2023-10-31T02:11:58;11.20;99.90
55211;DHT22;41082;52.822;6.666;2023-10-31T02:14:24;11.10;99.90
55211;DHT22;41082;52.822;6.666;2023-10-31T02:16:50;11.20;99.90
55211;DHT22;41082;52.822;6.666;2023-10-31T02:19:19;11.10;99.90
55211;DHT22;41082;52.822;6.666;2023-10-31T02:21:45;11.00;99.90
55211;DHT22;41082;52.822;6.666;2023-10-31T02:24:11;11.00;99.90
55211;DHT22;41082;52.822;6.666;2023-10-31T02:26:36;10.90;99.90
55211;DHT22;41082;52.822;6.666;2023-10-31T02:29:03;10.80;99.90
55211;DHT22;41082;52.822;6.666;2023-10-31T02:31:29;10.80;99.90
55211;DHT22;41082;52.822;6.666;2023-10-31T02:33:54;10.70;99.90
55211;DHT22;41082;52.822;6.666;2023-10-31T02:36:20;10.70;99.90
55211;DHT22;41082;52.822;6.666;2023-10-31T02:38:46;10.70;99.90
55211;DHT22;41082;52.822;6.666;2023-10-31T02:41:12;10.50;99.90
55211;DHT22;41082;52.822;6.666;2023-10-31T02:43:39;10.50;99.90
55211;DHT22;41082;52.822;6.666;2023-10-31T02:46:04;10.50;99.90
55211;DHT22;41082;52.822;6.666;2023-10-31T02:48:30;10.50;99.90
55211;DHT22;41082;52.822;6.666;2023-10-31T02:51:05;10.40;99.90
55211;DHT22;41082;52.822;6.666;2023-10-31T02:53:31;10.40;99.90
55211;DHT22;41082;52.822;6.666;2023-10-31T02:55:56;10.40;99.90
55211;DHT22;41082;52.822;6.666;2023-10-31T02:58:22;10.30;99.90
55211;DHT22;41082;52.822;6.666;2023-10-31T03:00:48;10.30;99.90
55211;DHT22;41082;52.822;6.666;2023-10-31T03:03:13;10.30;99.90
55211;DHT22;41082;52.822;6.666;2023-10-31T03:05:39;10.30;99.90
55211;DHT22;41082;52.822;6.666;2023-10-31T03:08:05;10.30;99.90
55211;DHT22;41082;52.822;6.666;2023-10-31T03:10:30;10.30;99.90
55211;DHT22;41082;52.822;6.666;2023-10-31T03:12:56;10.20;99.90
55211;DHT22;41082;52.822;6.666;2023-10-31T03:15:21;10.30;99.90
55211;DHT22;41082;52.822;6.666;2023-10-31T03:17:47;10.30;99.90
55211;DHT22;41082;52.822;6.666;2023-10-31T03:20:13;10.30;99.90
55211;DHT22;41082;52.822;6.666;2023-10-31T03:22:38;10.30;99.90
55211;DHT22;41082;52.822;6.666;2023-10-31T03:25:04;10.30;99.90
55211;DHT22;41082;52.822;6.666;2023-10-31T03:27:30;10.30;99.90
55211;DHT22;41082;52.822;6.666;2023-10-31T03:29:56;10.30;99.90
55211;DHT22;41082;52.822;6.666;2023-10-31T03:32:21;10.30;99.90
55211;DHT22;41082;52.822;6.666;2023-10-31T03:34:47;10.30;99.90
55211;DHT22;41082;52.822;6.666;2023-10-31T03:37:12;10.30;99.90
55211;DHT22;41082;52.822;6.666;2023-10-31T03:39:38;10.30;99.90
55211;DHT22;41082;52.822;6.666;2023-10-31T03:42:04;10.20;99.90
55211;DHT22;41082;52.822;6.666;2023-10-31T03:44:30;10.30;99.90
55211;DHT22;41082;52.822;6.666;2023-10-31T03:46:56;10.30;99.90
55211;DHT22;41082;52.822;6.666;2023-10-31T03:49:22;10.30;99.90
55211;DHT22;41082;52.822;6.666;2023-10-31T03:51:47;10.30;99.90
55211;DHT22;41082;52.822;6.666;2023-10-31T03:54:13;10.20;99.90
55211;DHT22;41082;52.822;6.666;2023-10-31T03:56:40;10.30;99.90
55211;DHT22;41082;52.822;6.666;2023-10-31T03:59:06;10.30;99.90
55211;DHT22;41082;52.822;6.666;2023-10-31T04:01:32;10.30;99.90
55211;DHT22;41082;52.822;6.666;2023-10-31T04:03:58;10.40;99.90
55211;DHT22;41082;52.822;6.666;2023-10-31T04:06:24;10.40;99.90
55211;DHT22;41082;52.822;6.666;2023-10-31T04:08:50;10.30;99.90
55211;DHT22;41082;52.822;6.666;2023-10-31T04:11:15;10.30;99.90
55211;DHT22;41082;52.822;6.666;2023-10-31T04:13:41;10.40;99.90
55211;DHT22;41082;52.822;6.666;2023-10-31T04:16:07;10.40;99.90
55211;DHT22;41082;52.822;6.666;2023-10-31T04:18:32;10.30;99.90
55211;DHT22;41082;52.822;6.666;2023-10-31T04:20:58;10.40;99.90
55211;DHT22;41082;52.822;6.666;2023-10-31T04:23:24;10.40;99.90
55211;DHT22;41082;52.822;6.666;2023-10-31T04:25:50;10.40;99.90
55211;DHT22;41082;52.822;6.666;2023-10-31T04:28:16;10.40;99.90
55211;DHT22;41082;52.822;6.666;2023-10-31T04:30:41;10.40;99.90
55211;DHT22;41082;52.822;6.666;2023-10-31T04:33:07;10.50;99.90
55211;DHT22;41082;52.822;6.666;2023-10-31T04:35:33;10.50;99.90
55211;DHT22;41082;52.822;6.666;2023-10-31T04:37:58;10.60;99.90
55211;DHT22;41082;52.822;6.666;2023-10-31T04:40:24;10.50;99.90
55211;DHT22;41082;52.822;6.666;2023-10-31T04:42:50;10.60;99.90
55211;DHT22;41082;52.822;6.666;2023-10-31T04:45:15;10.50;99.90
55211;DHT22;41082;52.822;6.666;2023-10-31T04:47:41;10.50;99.90
55211;DHT22;41082;52.822;6.666;2023-10-31T04:50:08;10.50;99.90
55211;DHT22;41082;52.822;6.666;2023-10-31T04:52:33;10.50;99.90
55211;DHT22;41082;52.822;6.666;2023-10-31T04:54:59;10.50;99.90
55211;DHT22;41082;52.822;6.666;2023-10-31T04:57:24;10.40;99.90
55211;DHT22;41082;52.822;6.666;2023-10-31T04:59:50;10.40;99.90
55211;DHT22;41082;52.822;6.666;2023-10-31T05:02:16;10.40;99.90
55211;DHT22;41082;52.822;6.666;2023-10-31T05:04:42;10.40;99.90
55211;DHT22;41082;52.822;6.666;2023-10-31T05:07:07;10.40;99.90
55211;DHT22;41082;52.822;6.666;2023-10-31T05:09:33;10.40;99.90
55211;DHT22;41082;52.822;6.666;2023-10-31T05:11:59;10.40;99.90
55211;DHT22;41082;52.822;6.666;2023-10-31T05:14:26;10.40;99.90
55211;DHT22;41082;52.822;6.666;2023-10-31T05:16:51;10.50;99.90
55211;DHT22;41082;52.822;6.666;2023-10-31T05:19:17;10.40;99.90
55211;DHT22;41082;52.822;6.666;2023-10-31T05:21:42;10.40;99.90
55211;DHT22;41082;52.822;6.666;2023-10-31T05:24:08;10.40;99.90
55211;DHT22;41082;52.822;6.666;2023-10-31T05:26:34;10.30;99.90
55211;DHT22;41082;52.822;6.666;2023-10-31T05:28:59;10.40;99.90
55211;DHT22;41082;52.822;6.666;2023-10-31T05:31:26;10.30;99.90
55211;DHT22;41082;52.822;6.666;2023-10-31T05:33:52;10.40;99.90
55211;DHT22;41082;52.822;6.666;2023-10-31T05:36:22;10.40;99.90
55211;DHT22;41082;52.822;6.666;2023-10-31T05:38:48;10.40;99.90
55211;DHT22;41082;52.822;6.666;2023-10-31T05:41:15;10.30;99.90
55211;DHT22;41082;52.822;6.666;2023-10-31T05:43:41;10.30;99.90
55211;DHT22;41082;52.822;6.666;2023-10-31T05:46:07;10.40;99.90
55211;DHT22;41082;52.822;6.666;2023-10-31T05:48:45;10.30;99.90
55211;DHT22;41082;52.822;6.666;2023-10-31T05:51:18;10.40;99.90
55211;DHT22;41082;52.822;6.666;2023-10-31T05:53:46;10.40;99.90
55211;DHT22;41082;52.822;6.666;2023-10-31T05:56:13;10.40;99.90
55211;DHT22;41082;52.822;6.666;2023-10-31T05:58:40;10.40;99.90
55211;DHT22;41082;52.822;6.666;2023-10-31T06:01:06;10.30;99.90
55211;DHT22;41082;52.822;6.666;2023-10-31T06:03:32;10.30;99.90
55211;DHT22;41082;52.822;6.666;2023-10-31T06:05:58;10.40;99.90
55211;DHT22;41082;52.822;6.666;2023-10-31T06:08:24;10.30;99.90
55211;DHT22;41082;52.822;6.666;2023-10-31T06:10:53;10.30;99.90
55211;DHT22;41082;52.822;6.666;2023-10-31T06:13:18;10.40;99.90
55211;DHT22;41082;52.822;6.666;2023-10-31T06:15:44;10.40;99.90
55211;DHT22;41082;52.822;6.666;2023-10-31T06:18:10;10.30;99.90
55211;DHT22;41082;52.822;6.666;2023-10-31T06:20:35;10.30;99.90
55211;DHT22;41082;52.822;6.666;2023-10-31T06:23:02;10.30;99.90
55211;DHT22;41082;52.822;6.666;2023-10-31T06:25:29;10.30;99.90
55211;DHT22;41082;52.822;6.666;2023-10-31T06:27:55;10.30;99.90
55211;DHT22;41082;52.822;6.666;2023-10-31T06:30:21;10.40;99.90
55211;DHT22;41082;52.822;6.666;2023-10-31T06:32:46;10.40;99.90
55211;DHT22;41082;52.822;6.666;2023-10-31T06:35:12;10.40;99.90
55211;DHT22;41082;52.822;6.666;2023-10-31T06:37:38;10.40;99.90
55211;DHT22;41082;52.822;6.666;2023-10-31T06:40:04;10.30;99.90
55211;DHT22;41082;52.822;6.666;2023-10-31T06:42:30;10.30;99.90
55211;DHT22;41082;52.822;6.666;2023-10-31T06:44:56;10.40;99.90
55211;DHT22;41082;52.822;6.666;2023-10-31T06:47:21;10.30;99.90
55211;DHT22;41082;52.822;6.666;2023-10-31T06:49:47;10.40;99.90
55211;DHT22;41082;52.822;6.666;2023-10-31T06:52:13;10.30;99.90
55211;DHT22;41082;52.822;6.666;2023-10-31T06:54:38;10.30;99.90
55211;DHT22;41082;52.822;6.666;2023-10-31T06:57:04;10.30;99.90
55211;DHT22;41082;52.822;6.666;2023-10-31T06:59:30;10.30;99.90
55211;DHT22;41082;52.822;6.666;2023-10-31T07:01:55;10.40;99.90
55211;DHT22;41082;52.822;6.666;2023-10-31T07:04:21;10.40;99.90
55211;DHT22;41082;52.822;6.666;2023-10-31T07:06:46;10.30;99.90
55211;DHT22;41082;52.822;6.666;2023-10-31T07:09:12;10.30;99.90
55211;DHT22;41082;52.822;6.666;2023-10-31T07:11:38;10.30;99.90
55211;DHT22;41082;52.822;6.666;2023-10-31T07:14:03;10.40;99.90
55211;DHT22;41082;52.822;6.666;2023-10-31T07:16:31;10.40;99.90
55211;DHT22;41082;52.822;6.666;2023-10-31T07:18:57;10.50;99.90
55211;DHT22;41082;52.822;6.666;2023-10-31T07:21:23;10.50;99.90
55211;DHT22;41082;52.822;6.666;2023-10-31T07:23:48;10.40;99.90
55211;DHT22;41082;52.822;6.666;2023-10-31T07:26:14;10.40;99.90
55211;DHT22;41082;52.822;6.666;2023-10-31T07:28:40;10.60;99.90
55211;DHT22;41082;52.822;6.666;2023-10-31T07:31:05;10.60;99.90
55211;DHT22;41082;52.822;6.666;2023-10-31T07:33:31;10.70;99.90
55211;DHT22;41082;52.822;6.666;2023-10-31T07:35:56;10.70;99.90
55211;DHT22;41082;52.822;6.666;2023-10-31T07:38:22;10.70;99.90
55211;DHT22;41082;52.822;6.666;2023-10-31T07:40:48;10.70;99.90
55211;DHT22;41082;52.822;6.666;2023-10-31T07:43:15;10.80;99.90
55211;DHT22;41082;52.822;6.666;2023-10-31T07:45:40;10.80;99.90
55211;DHT22;41082;52.822;6.666;2023-10-31T07:48:07;10.90;99.90
55211;DHT22;41082;52.822;6.666;2023-10-31T07:50:33;10.90;99.90
55211;DHT22;41082;52.822;6.666;2023-10-31T07:52:59;10.90;99.90
55211;DHT22;41082;52.822;6.666;2023-10-31T07:55:25;10.90;99.90
55211;DHT22;41082;52.822;6.666;2023-10-31T07:57:51;11.00;99.90
55211;DHT22;41082;52.822;6.666;2023-10-31T08:00:17;11.10;99.90
55211;DHT22;41082;52.822;6.666;2023-10-31T08:02:42;11.10;99.90
55211;DHT22;41082;52.822;6.666;2023-10-31T08:05:10;11.20;99.90
55211;DHT22;41082;52.822;6.666;2023-10-31T08:07:36;11.20;99.90
55211;DHT22;41082;52.822;6.666;2023-10-31T08:10:02;11.20;99.90
55211;DHT22;41082;52.822;6.666;2023-10-31T08:12:29;11.20;99.90
55211;DHT22;41082;52.822;6.666;2023-10-31T08:14:55;11.30;99.90
55211;DHT22;41082;52.822;6.666;2023-10-31T08:17:20;11.30;99.90
55211;DHT22;41082;52.822;6.666;2023-10-31T08:19:46;11.30;99.90
55211;DHT22;41082;52.822;6.666;2023-10-31T08:22:13;11.30;99.90
55211;DHT22;41082;52.822;6.666;2023-10-31T08:24:39;11.40;99.90
55211;DHT22;41082;52.822;6.666;2023-10-31T08:27:05;11.50;99.90
55211;DHT22;41082;52.822;6.666;2023-10-31T08:29:31;11.50;99.90
55211;DHT22;41082;52.822;6.666;2023-10-31T08:31:56;11.50;99.90
55211;DHT22;41082;52.822;6.666;2023-10-31T08:34:22;11.60;99.90
55211;DHT22;41082;52.822;6.666;2023-10-31T08:36:48;11.60;99.90
55211;DHT22;41082;52.822;6.666;2023-10-31T08:39:14;11.70;99.90
55211;DHT22;41082;52.822;6.666;2023-10-31T08:41:56;11.70;99.90
55211;DHT22;41082;52.822;6.666;2023-10-31T08:44:22;11.80;99.90
55211;DHT22;41082;52.822;6.666;2023-10-31T08:46:48;11.80;99.90
55211;DHT22;41082;52.822;6.666;2023-10-31T08:49:15;11.80;99.90
55211;DHT22;41082;52.822;6.666;2023-10-31T08:51:41;11.90;99.90
55211;DHT22;41082;52.822;6.666;2023-10-31T08:54:07;11.80;99.90
55211;DHT22;41082;52.822;6.666;2023-10-31T08:56:34;11.80;99.90
55211;DHT22;41082;52.822;6.666;2023-10-31T08:59:00;11.80;99.90
55211;DHT22;41082;52.822;6.666;2023-10-31T09:01:26;11.80;99.90
55211;DHT22;41082;52.822;6.666;2023-10-31T09:03:54;11.80;99.90
55211;DHT22;41082;52.822;6.666;2023-10-31T09:06:20;11.80;99.90
55211;DHT22;41082;52.822;6.666;2023-10-31T09:08:46;11.70;99.90
55211;DHT22;41082;52.822;6.666;2023-10-31T09:11:11;11.80;99.90
55211;DHT22;41082;52.822;6.666;2023-10-31T09:13:37;11.80;99.90
55211;DHT22;41082;52.822;6.666;2023-10-31T09:16:03;11.80;99.90
55211;DHT22;41082;52.822;6.666;2023-10-31T09:18:30;11.80;99.90
55211;DHT22;41082;52.822;6.666;2023-10-31T09:20:55;11.90;99.90
55211;DHT22;41082;52.822;6.666;2023-10-31T09:23:21;11.90;99.90
55211;DHT22;41082;52.822;6.666;2023-10-31T09:25:47;12.00;99.90
55211;DHT22;41082;52.822;6.666;2023-10-31T09:28:12;12.10;99.90
55211;DHT22;41082;52.822;6.666;2023-10-31T09:30:38;12.20;99.90
55211;DHT22;41082;52.822;6.666;2023-10-31T09:33:04;12.20;99.90
55211;DHT22;41082;52.822;6.666;2023-10-31T09:35:29;12.30;99.90
55211;DHT22;41082;52.822;6.666;2023-10-31T09:37:55;12.40;99.90
55211;DHT22;41082;52.822;6.666;2023-10-31T09:40:21;12.50;99.90
55211;DHT22;41082;52.822;6.666;2023-10-31T09:42:47;12.60;99.90
55211;DHT22;41082;52.822;6.666;2023-10-31T09:45:14;12.70;99.90
55211;DHT22;41082;52.822;6.666;2023-10-31T09:47:40;12.80;99.90
55211;DHT22;41082;52.822;6.666;2023-10-31T09:50:07;12.80;99.90
55211;DHT22;41082;52.822;6.666;2023-10-31T09:52:38;12.80;99.90
55211;DHT22;41082;52.822;6.666;2023-10-31T09:55:04;12.90;99.90
55211;DHT22;41082;52.822;6.666;2023-10-31T09:57:31;12.90;99.90
55211;DHT22;41082;52.822;6.666;2023-10-31T09:59:57;12.90;99.90
55211;DHT22;41082;52.822;6.666;2023-10-31T10:02:23;13.00;99.90
55211;DHT22;41082;52.822;6.666;2023-10-31T10:04:49;12.90;99.90
55211;DHT22;41082;52.822;6.666;2023-10-31T10:07:19;12.90;99.90
55211;DHT22;41082;52.822;6.666;2023-10-31T10:09:48;12.80;99.90
55211;DHT22;41082;52.822;6.666;2023-10-31T10:12:15;12.80;99.90
55211;DHT22;41082;52.822;6.666;2023-10-31T10:14:41;12.70;99.90
55211;DHT22;41082;52.822;6.666;2023-10-31T10:17:26;12.70;99.90
55211;DHT22;41082;52.822;6.666;2023-10-31T10:20:11;12.70;99.90
55211;DHT22;41082;52.822;6.666;2023-10-31T10:22:40;12.60;99.90
55211;DHT22;41082;52.822;6.666;2023-10-31T10:25:12;12.60;99.90
55211;DHT22;41082;52.822;6.666;2023-10-31T10:27:39;12.60;99.90
55211;DHT22;41082;52.822;6.666;2023-10-31T10:30:07;12.50;99.90
55211;DHT22;41082;52.822;6.666;2023-10-31T10:32:33;12.50;99.90
55211;DHT22;41082;52.822;6.666;2023-10-31T10:34:59;12.40;99.90
55211;DHT22;41082;52.822;6.666;2023-10-31T10:37:26;12.40;99.90
55211;DHT22;41082;52.822;6.666;2023-10-31T10:39:53;12.40;99.90
55211;DHT22;41082;52.822;6.666;2023-10-31T10:42:31;12.40;99.90
55211;DHT22;41082;52.822;6.666;2023-10-31T10:45:01;12.40;99.90
55211;DHT22;41082;52.822;6.666;2023-10-31T10:47:28;12.30;99.90
55211;DHT22;41082;52.822;6.666;2023-10-31T10:49:59;12.40;99.90
55211;DHT22;41082;52.822;6.666;2023-10-31T10:52:44;12.40;99.90
55211;DHT22;41082;52.822;6.666;2023-10-31T10:55:20;12.40;99.90
55211;DHT22;41082;52.822;6.666;2023-10-31T10:58:05;12.50;99.90
55211;DHT22;41082;52.822;6.666;2023-10-31T11:00:31;12.40;99.90
55211;DHT22;41082;52.822;6.666;2023-10-31T11:02:57;12.40;99.90
55211;DHT22;41082;52.822;6.666;2023-10-31T11:05:24;12.50;99.90
55211;DHT22;41082;52.822;6.666;2023-10-31T11:07:50;12.50;99.90
55211;DHT22;41082;52.822;6.666;2023-10-31T11:10:17;12.50;99.90
55211;DHT22;41082;52.822;6.666;2023-10-31T11:12:43;12.50;99.90
55211;DHT22;41082;52.822;6.666;2023-10-31T11:15:11;12.50;99.90
55211;DHT22;41082;52.822;6.666;2023-10-31T11:17:38;12.50;99.90
55211;DHT22;41082;52.822;6.666;2023-10-31T11:20:08;12.60;99.90
55211;DHT22;41082;52.822;6.666;2023-10-31T11:22:45;12.60;99.90
55211;DHT22;41082;52.822;6.666;2023-10-31T11:25:17;12.60;99.90
55211;DHT22;41082;52.822;6.666;2023-10-31T11:27:43;12.60;99.90
55211;DHT22;41082;52.822;6.666;2023-10-31T11:30:29;12.60;99.90
55211;DHT22;41082;52.822;6.666;2023-10-31T11:32:58;12.60;99.90
55211;DHT22;41082;52.822;6.666;2023-10-31T11:35:24;12.60;99.90
55211;DHT22;41082;52.822;6.666;2023-10-31T11:38:05;12.60;99.90
55211;DHT22;41082;52.822;6.666;2023-10-31T11:40:34;12.60;99.90
55211;DHT22;41082;52.822;6.666;2023-10-31T11:43:04;12.70;99.90
55211;DHT22;41082;52.822;6.666;2023-10-31T11:45:40;12.70;99.90
55211;DHT22;41082;52.822;6.666;2023-10-31T11:48:10;12.70;99.90
55211;DHT22;41082;52.822;6.666;2023-10-31T11:50:37;12.80;99.90
55211;DHT22;41082;52.822;6.666;2023-10-31T11:53:06;12.80;99.90
55211;DHT22;41082;52.822;6.666;2023-10-31T11:55:34;12.80;99.90
55211;DHT22;41082;52.822;6.666;2023-10-31T11:58:24;12.80;99.90
55211;DHT22;41082;52.822;6.666;2023-10-31T12:00:53;12.80;99.90
55211;DHT22;41082;52.822;6.666;2023-10-31T12:03:26;12.90;99.90
55211;DHT22;41082;52.822;6.666;2023-10-31T12:05:58;12.90;99.90
55211;DHT22;41082;52.822;6.666;2023-10-31T12:08:29;12.90;99.90
55211;DHT22;41082;52.822;6.666;2023-10-31T12:13:30;12.90;99.90
55211;DHT22;41082;52.822;6.666;2023-10-31T12:15:56;12.90;99.90
55211;DHT22;41082;52.822;6.666;2023-10-31T12:18:23;12.80;99.90
55211;DHT22;41082;52.822;6.666;2023-10-31T12:20:50;12.80;99.90
55211;DHT22;41082;52.822;6.666;2023-10-31T12:23:17;12.80;99.90
55211;DHT22;41082;52.822;6.666;2023-10-31T12:25:53;12.80;99.90
55211;DHT22;41082;52.822;6.666;2023-10-31T12:28:23;12.80;99.90
55211;DHT22;41082;52.822;6.666;2023-10-31T12:30:53;12.80;99.90
55211;DHT22;41082;52.822;6.666;2023-10-31T12:33:27;12.80;99.90
55211;DHT22;41082;52.822;6.666;2023-10-31T12:35:57;12.90;99.90
55211;DHT22;41082;52.822;6.666;2023-10-31T12:38:23;12.90;99.90
55211;DHT22;41082;52.822;6.666;2023-10-31T12:40:49;13.00;99.90
55211;DHT22;41082;52.822;6.666;2023-10-31T12:43:16;13.00;99.90
55211;DHT22;41082;52.822;6.666;2023-10-31T12:45:42;13.10;99.90
55211;DHT22;41082;52.822;6.666;2023-10-31T12:48:10;13.00;99.90
55211;DHT22;41082;52.822;6.666;2023-10-31T12:50:37;13.00;99.90
55211;DHT22;41082;52.822;6.666;2023-10-31T12:53:04;13.10;99.90
55211;DHT22;41082;52.822;6.666;2023-10-31T12:55:31;13.10;99.90
55211;DHT22;41082;52.822;6.666;2023-10-31T12:58:02;13.10;99.90
55211;DHT22;41082;52.822;6.666;2023-10-31T13:00:33;13.10;99.90
55211;DHT22;41082;52.822;6.666;2023-10-31T13:03:04;13.20;99.90
55211;DHT22;41082;52.822;6.666;2023-10-31T13:05:31;13.10;99.90
55211;DHT22;41082;52.822;6.666;2023-10-31T13:07:57;13.10;99.90
55211;DHT22;41082;52.822;6.666;2023-10-31T13:10:26;13.00;99.90
55211;DHT22;41082;52.822;6.666;2023-10-31T13:12:52;13.00;99.90
55211;DHT22;41082;52.822;6.666;2023-10-31T13:15:22;13.00;99.90
55211;DHT22;41082;52.822;6.666;2023-10-31T13:17:49;13.00;99.90
55211;DHT22;41082;52.822;6.666;2023-10-31T13:20:19;13.00;99.90
55211;DHT22;41082;52.822;6.666;2023-10-31T13:22:45;13.00;99.90
55211;DHT22;41082;52.822;6.666;2023-10-31T13:25:13;13.00;99.90
55211;DHT22;41082;52.822;6.666;2023-10-31T13:27:43;13.00;99.90
55211;DHT22;41082;52.822;6.666;2023-10-31T13:30:11;13.00;99.90
55211;DHT22;41082;52.822;6.666;2023-10-31T13:32:37;13.00;99.90
55211;DHT22;41082;52.822;6.666;2023-10-31T13:35:04;13.00;99.90
55211;DHT22;41082;52.822;6.666;2023-10-31T13:37:30;13.00;99.90
55211;DHT22;41082;52.822;6.666;2023-10-31T13:39:56;13.00;99.90
55211;DHT22;41082;52.822;6.666;2023-10-31T13:42:21;12.90;99.90
55211;DHT22;41082;52.822;6.666;2023-10-31T13:44:47;13.00;99.90
55211;DHT22;41082;52.822;6.666;2023-10-31T13:47:14;13.00;99.90
55211;DHT22;41082;52.822;6.666;2023-10-31T13:49:39;12.90;99.90
55211;DHT22;41082;52.822;6.666;2023-10-31T13:52:06;12.90;99.90
55211;DHT22;41082;52.822;6.666;2023-10-31T13:54:34;12.90;99.90
55211;DHT22;41082;52.822;6.666;2023-10-31T13:57:00;12.80;99.90
55211;DHT22;41082;52.822;6.666;2023-10-31T13:59:26;12.80;99.90
55211;DHT22;41082;52.822;6.666;2023-10-31T14:01:52;12.80;99.90
55211;DHT22;41082;52.822;6.666;2023-10-31T14:04:18;12.80;99.90
55211;DHT22;41082;52.822;6.666;2023-10-31T14:06:45;12.70;99.90
55211;DHT22;41082;52.822;6.666;2023-10-31T14:09:11;12.70;99.90
55211;DHT22;41082;52.822;6.666;2023-10-31T14:11:38;12.70;99.90
55211;DHT22;41082;52.822;6.666;2023-10-31T14:14:04;12.70;99.90
55211;DHT22;41082;52.822;6.666;2023-10-31T14:16:42;12.70;99.90
55211;DHT22;41082;52.822;6.666;2023-10-31T14:19:10;12.60;99.90
55211;DHT22;41082;52.822;6.666;2023-10-31T14:21:36;12.60;99.90
55211;DHT22;41082;52.822;6.666;2023-10-31T14:24:02;12.60;99.90
55211;DHT22;41082;52.822;6.666;2023-10-31T14:26:28;12.60;99.90
55211;DHT22;41082;52.822;6.666;2023-10-31T14:28:54;12.60;99.90
55211;DHT22;41082;52.822;6.666;2023-10-31T14:31:20;12.60;99.90
55211;DHT22;41082;52.822;6.666;2023-10-31T14:33:46;12.50;99.90
55211;DHT22;41082;52.822;6.666;2023-10-31T14:36:12;12.50;99.90
55211;DHT22;41082;52.822;6.666;2023-10-31T14:38:39;12.40;99.90
55211;DHT22;41082;52.822;6.666;2023-10-31T14:41:06;12.40;99.90
55211;DHT22;41082;52.822;6.666;2023-10-31T14:43:33;12.40;99.90
55211;DHT22;41082;52.822;6.666;2023-10-31T14:45:58;12.40;99.90
55211;DHT22;41082;52.822;6.666;2023-10-31T14:48:24;12.40;99.90
55211;DHT22;41082;52.822;6.666;2023-10-31T14:50:50;12.30;99.90
55211;DHT22;41082;52.822;6.666;2023-10-31T14:53:16;12.30;99.90
55211;DHT22;41082;52.822;6.666;2023-10-31T14:55:42;12.30;99.90
55211;DHT22;41082;52.822;6.666;2023-10-31T14:58:08;12.20;99.90
55211;DHT22;41082;52.822;6.666;2023-10-31T15:00:36;12.30;99.90
55211;DHT22;41082;52.822;6.666;2023-10-31T15:03:03;12.20;99.90
55211;DHT22;41082;52.822;6.666;2023-10-31T15:05:28;12.20;99.90
55211;DHT22;41082;52.822;6.666;2023-10-31T15:07:55;12.20;99.90
55211;DHT22;41082;52.822;6.666;2023-10-31T15:10:21;12.20;99.90
55211;DHT22;41082;52.822;6.666;2023-10-31T15:12:47;12.10;99.90
55211;DHT22;41082;52.822;6.666;2023-10-31T15:15:17;12.10;99.90
55211;DHT22;41082;52.822;6.666;2023-10-31T15:17:43;12.10;99.90
55211;DHT22;41082;52.822;6.666;2023-10-31T15:20:09;12.00;99.90
55211;DHT22;41082;52.822;6.666;2023-10-31T15:22:39;12.00;99.90
55211;DHT22;41082;52.822;6.666;2023-10-31T15:25:05;12.00;99.90
55211;DHT22;41082;52.822;6.666;2023-10-31T15:27:31;11.90;99.90
55211;DHT22;41082;52.822;6.666;2023-10-31T15:29:57;11.90;99.90